sensor_id;sensor_type;location;lat;lon;timestamp;P1;durP1;ratioP1;P2;durP2;ratioP2
57331;SDS011;43164;50.908;18.092;2022-10-16T00:00:18;15.00;;;7.20;;
57331;SDS011;43164;50.908;18.092;2022-10-16T00:02:47;14.60;;;7.40;;
57331;SDS011;43164;50.908;18.092;2022-10-16T00:05:15;16.30;;;8.50;;
57331;SDS011;43164;50.908;18.092;2022-10-16T00:07:43;15.10;;;8.60;;
57331;SDS011;43164;50.908;18.092;2022-10-16T00:10:24;13.90;;;7.70;;
57331;SDS011;43164;50.908;18.092;2022-10-16T00:13:02;17.70;;;8.40;;
57331;SDS011;43164;50.908;18.092;2022-10-16T00:15:36;16.00;;;8.70;;
57331;SDS011;43164;50.908;18.092;2022-10-16T00:18:14;15.80;;;9.00;;
57331;SDS011;43164;50.908;18.092;2022-10-16T00:20:47;16.20;;;8.50;;
57331;SDS011;43164;50.908;18.092;2022-10-16T00:23:15;17.90;;;10.30;;
57331;SDS011;43164;50.908;18.092;2022-10-16T00:25:42;18.70;;;10.10;;
57331;SDS011;43164;50.908;18.092;2022-10-16T00:28:10;18.50;;;9.90;;
57331;SDS011;43164;50.908;18.092;2022-10-16T00:30:38;18.70;;;9.60;;
57331;SDS011;43164;50.908;18.092;2022-10-16T00:33:07;20.00;;;10.10;;
57331;SDS011;43164;50.908;18.092;2022-10-16T00:35:34;18.60;;;10.00;;
57331;SDS011;43164;50.908;18.092;2022-10-16T00:38:02;18.50;;;9.80;;
57331;SDS011;43164;50.908;18.092;2022-10-16T00:40:31;20.00;;;9.80;;
57331;SDS011;43164;50.908;18.092;2022-10-16T00:49:03;19.50;;;10.20;;
57331;SDS011;43164;50.908;18.092;2022-10-16T00:51:37;22.50;;;12.20;;
57331;SDS011;43164;50.908;18.092;2022-10-16T00:54:10;21.50;;;11.40;;
57331;SDS011;43164;50.908;18.092;2022-10-16T00:56:41;22.20;;;11.40;;
57331;SDS011;43164;50.908;18.092;2022-10-16T00:59:14;22.40;;;12.10;;
57331;SDS011;43164;50.908;18.092;2022-10-16T01:04:11;25.70;;;13.10;;
57331;SDS011;43164;50.908;18.092;2022-10-16T01:07:02;25.10;;;13.80;;
57331;SDS011;43164;50.908;18.092;2022-10-16T01:09:55;25.80;;;14.30;;
57331;SDS011;43164;50.908;18.092;2022-10-16T01:12:45;25.20;;;13.60;;
57331;SDS011;43164;50.908;18.092;2022-10-16T01:18:12;26.20;;;14.20;;
57331;SDS011;43164;50.908;18.092;2022-10-16T01:21:22;26.90;;;14.30;;
57331;SDS011;43164;50.908;18.092;2022-10-16T01:27:07;28.10;;;14.50;;
57331;SDS011;43164;50.908;18.092;2022-10-16T01:29:36;28.00;;;15.40;;
57331;SDS011;43164;50.908;18.092;2022-10-16T01:32:17;28.50;;;15.80;;
57331;SDS011;43164;50.908;18.092;2022-10-16T01:35:04;29.00;;;16.20;;
57331;SDS011;43164;50.908;18.092;2022-10-16T01:37:45;29.90;;;15.80;;
57331;SDS011;43164;50.908;18.092;2022-10-16T01:40:18;31.10;;;17.00;;
57331;SDS011;43164;50.908;18.092;2022-10-16T01:42:52;37.00;;;17.20;;
57331;SDS011;43164;50.908;18.092;2022-10-16T01:45:32;29.60;;;15.90;;
57331;SDS011;43164;50.908;18.092;2022-10-16T01:48:00;35.80;;;16.30;;
57331;SDS011;43164;50.908;18.092;2022-10-16T01:50:31;31.20;;;16.30;;
57331;SDS011;43164;50.908;18.092;2022-10-16T01:53:00;30.10;;;16.00;;
57331;SDS011;43164;50.908;18.092;2022-10-16T01:55:29;25.70;;;14.70;;
57331;SDS011;43164;50.908;18.092;2022-10-16T01:58:00;30.10;;;16.20;;
57331;SDS011;43164;50.908;18.092;2022-10-16T02:00:28;31.00;;;17.10;;
57331;SDS011;43164;50.908;18.092;2022-10-16T02:02:57;30.30;;;16.80;;
57331;SDS011;43164;50.908;18.092;2022-10-16T02:05:29;30.30;;;16.00;;
57331;SDS011;43164;50.908;18.092;2022-10-16T02:07:59;31.20;;;16.80;;
57331;SDS011;43164;50.908;18.092;2022-10-16T02:10:26;32.20;;;16.80;;
57331;SDS011;43164;50.908;18.092;2022-10-16T02:13:06;32.60;;;17.40;;
57331;SDS011;43164;50.908;18.092;2022-10-16T02:15:40;30.80;;;17.00;;
57331;SDS011;43164;50.908;18.092;2022-10-16T02:18:08;30.10;;;16.90;;
57331;SDS011;43164;50.908;18.092;2022-10-16T02:20:38;32.80;;;17.90;;
57331;SDS011;43164;50.908;18.092;2022-10-16T02:23:14;30.40;;;16.10;;
57331;SDS011;43164;50.908;18.092;2022-10-16T02:26:00;32.10;;;17.50;;
57331;SDS011;43164;50.908;18.092;2022-10-16T02:28:36;31.90;;;17.10;;
57331;SDS011;43164;50.908;18.092;2022-10-16T02:31:16;36.40;;;18.80;;
57331;SDS011;43164;50.908;18.092;2022-10-16T02:33:50;32.20;;;17.70;;
57331;SDS011;43164;50.908;18.092;2022-10-16T02:36:18;32.60;;;16.80;;
57331;SDS011;43164;50.908;18.092;2022-10-16T02:38:46;31.80;;;17.80;;
57331;SDS011;43164;50.908;18.092;2022-10-16T02:41:15;30.90;;;16.10;;
57331;SDS011;43164;50.908;18.092;2022-10-16T02:43:42;28.80;;;15.80;;
57331;SDS011;43164;50.908;18.092;2022-10-16T02:46:10;29.70;;;15.90;;
57331;SDS011;43164;50.908;18.092;2022-10-16T02:48:38;27.60;;;15.20;;
57331;SDS011;43164;50.908;18.092;2022-10-16T02:51:06;28.60;;;15.30;;
57331;SDS011;43164;50.908;18.092;2022-10-16T02:53:33;32.30;;;16.00;;
57331;SDS011;43164;50.908;18.092;2022-10-16T02:56:01;30.50;;;14.10;;
57331;SDS011;43164;50.908;18.092;2022-10-16T02:58:29;25.40;;;13.60;;
57331;SDS011;43164;50.908;18.092;2022-10-16T03:00:57;27.00;;;13.90;;
57331;SDS011;43164;50.908;18.092;2022-10-16T03:03:24;25.50;;;13.90;;
57331;SDS011;43164;50.908;18.092;2022-10-16T03:05:52;24.90;;;12.70;;
57331;SDS011;43164;50.908;18.092;2022-10-16T03:08:19;24.80;;;13.40;;
57331;SDS011;43164;50.908;18.092;2022-10-16T03:10:53;22.40;;;13.00;;
57331;SDS011;43164;50.908;18.092;2022-10-16T03:13:20;25.80;;;14.20;;
57331;SDS011;43164;50.908;18.092;2022-10-16T03:15:48;26.40;;;12.80;;
57331;SDS011;43164;50.908;18.092;2022-10-16T03:18:16;24.10;;;12.70;;
57331;SDS011;43164;50.908;18.092;2022-10-16T03:20:44;26.80;;;13.50;;
57331;SDS011;43164;50.908;18.092;2022-10-16T03:23:12;23.60;;;12.30;;
57331;SDS011;43164;50.908;18.092;2022-10-16T03:25:40;22.10;;;12.50;;
57331;SDS011;43164;50.908;18.092;2022-10-16T03:28:08;21.00;;;12.50;;
57331;SDS011;43164;50.908;18.092;2022-10-16T03:30:34;21.40;;;12.10;;
57331;SDS011;43164;50.908;18.092;2022-10-16T03:33:02;22.50;;;13.10;;
57331;SDS011;43164;50.908;18.092;2022-10-16T03:35:29;22.90;;;11.90;;
57331;SDS011;43164;50.908;18.092;2022-10-16T03:37:57;25.30;;;12.80;;
57331;SDS011;43164;50.908;18.092;2022-10-16T03:40:24;20.50;;;11.20;;
57331;SDS011;43164;50.908;18.092;2022-10-16T03:42:53;21.90;;;12.20;;
57331;SDS011;43164;50.908;18.092;2022-10-16T03:47:54;20.60;;;11.40;;
57331;SDS011;43164;50.908;18.092;2022-10-16T03:50:20;22.90;;;11.70;;
57331;SDS011;43164;50.908;18.092;2022-10-16T03:52:48;19.90;;;11.90;;
57331;SDS011;43164;50.908;18.092;2022-10-16T03:55:15;24.40;;;13.40;;
57331;SDS011;43164;50.908;18.092;2022-10-16T03:57:42;21.00;;;13.10;;
57331;SDS011;43164;50.908;18.092;2022-10-16T04:00:10;22.70;;;13.10;;
57331;SDS011;43164;50.908;18.092;2022-10-16T04:02:39;21.70;;;12.10;;
57331;SDS011;43164;50.908;18.092;2022-10-16T04:05:06;23.00;;;13.00;;
57331;SDS011;43164;50.908;18.092;2022-10-16T04:07:35;21.10;;;12.20;;
57331;SDS011;43164;50.908;18.092;2022-10-16T04:10:02;23.90;;;12.30;;
57331;SDS011;43164;50.908;18.092;2022-10-16T04:12:30;22.80;;;12.80;;
57331;SDS011;43164;50.908;18.092;2022-10-16T04:14:58;22.60;;;12.70;;
57331;SDS011;43164;50.908;18.092;2022-10-16T04:17:26;22.50;;;13.40;;
57331;SDS011;43164;50.908;18.092;2022-10-16T04:19:54;24.10;;;13.90;;
57331;SDS011;43164;50.908;18.092;2022-10-16T04:22:22;24.70;;;13.30;;
57331;SDS011;43164;50.908;18.092;2022-10-16T04:24:50;23.40;;;13.70;;
57331;SDS011;43164;50.908;18.092;2022-10-16T04:27:18;21.80;;;12.50;;
57331;SDS011;43164;50.908;18.092;2022-10-16T04:29:45;25.30;;;14.00;;
57331;SDS011;43164;50.908;18.092;2022-10-16T04:32:13;25.20;;;14.20;;
57331;SDS011;43164;50.908;18.092;2022-10-16T04:34:41;24.90;;;14.10;;
57331;SDS011;43164;50.908;18.092;2022-10-16T04:37:08;24.40;;;12.90;;
57331;SDS011;43164;50.908;18.092;2022-10-16T04:39:37;23.90;;;13.50;;
57331;SDS011;43164;50.908;18.092;2022-10-16T04:42:05;26.50;;;13.60;;
57331;SDS011;43164;50.908;18.092;2022-10-16T04:44:33;26.30;;;14.30;;
57331;SDS011;43164;50.908;18.092;2022-10-16T04:47:01;28.70;;;15.40;;
57331;SDS011;43164;50.908;18.092;2022-10-16T04:49:29;31.10;;;15.60;;
57331;SDS011;43164;50.908;18.092;2022-10-16T04:51:57;24.40;;;14.10;;
57331;SDS011;43164;50.908;18.092;2022-10-16T04:54:25;28.10;;;15.30;;
57331;SDS011;43164;50.908;18.092;2022-10-16T04:56:52;30.90;;;17.00;;
57331;SDS011;43164;50.908;18.092;2022-10-16T04:59:20;26.00;;;15.30;;
57331;SDS011;43164;50.908;18.092;2022-10-16T05:01:49;28.60;;;16.40;;
57331;SDS011;43164;50.908;18.092;2022-10-16T05:04:16;29.90;;;16.00;;
57331;SDS011;43164;50.908;18.092;2022-10-16T05:06:44;30.10;;;15.70;;
57331;SDS011;43164;50.908;18.092;2022-10-16T05:09:11;31.70;;;17.40;;
57331;SDS011;43164;50.908;18.092;2022-10-16T05:11:39;30.80;;;16.50;;
57331;SDS011;43164;50.908;18.092;2022-10-16T05:14:07;28.20;;;16.20;;
57331;SDS011;43164;50.908;18.092;2022-10-16T05:16:35;31.30;;;17.90;;
57331;SDS011;43164;50.908;18.092;2022-10-16T05:19:03;33.50;;;18.20;;
57331;SDS011;43164;50.908;18.092;2022-10-16T05:21:32;29.20;;;17.50;;
57331;SDS011;43164;50.908;18.092;2022-10-16T05:24:07;34.00;;;19.40;;
57331;SDS011;43164;50.908;18.092;2022-10-16T05:26:39;31.50;;;18.80;;
57331;SDS011;43164;50.908;18.092;2022-10-16T05:29:12;32.80;;;18.90;;
57331;SDS011;43164;50.908;18.092;2022-10-16T05:31:41;32.00;;;18.10;;
57331;SDS011;43164;50.908;18.092;2022-10-16T05:34:14;32.50;;;18.40;;
57331;SDS011;43164;50.908;18.092;2022-10-16T05:36:42;32.80;;;18.80;;
57331;SDS011;43164;50.908;18.092;2022-10-16T05:39:13;33.00;;;18.80;;
57331;SDS011;43164;50.908;18.092;2022-10-16T05:41:41;28.90;;;17.40;;
57331;SDS011;43164;50.908;18.092;2022-10-16T05:51:03;35.00;;;19.60;;
57331;SDS011;43164;50.908;18.092;2022-10-16T05:53:39;30.50;;;18.60;;
57331;SDS011;43164;50.908;18.092;2022-10-16T05:56:13;33.30;;;18.40;;
57331;SDS011;43164;50.908;18.092;2022-10-16T05:58:42;35.30;;;18.50;;
57331;SDS011;43164;50.908;18.092;2022-10-16T06:01:12;27.00;;;16.80;;
57331;SDS011;43164;50.908;18.092;2022-10-16T06:13:57;33.00;;;18.90;;
57331;SDS011;43164;50.908;18.092;2022-10-16T06:16:42;28.80;;;18.30;;
57331;SDS011;43164;50.908;18.092;2022-10-16T07:11:42;29.60;;;18.00;;
57331;SDS011;43164;50.908;18.092;2022-10-16T07:25:15;31.30;;;18.80;;
57331;SDS011;43164;50.908;18.092;2022-10-16T07:31:33;25.10;;;15.90;;
57331;SDS011;43164;50.908;18.092;2022-10-16T07:38:04;24.30;;;14.70;;
57331;SDS011;43164;50.908;18.092;2022-10-16T07:40:39;25.00;;;15.60;;
57331;SDS011;43164;50.908;18.092;2022-10-16T07:45:50;25.40;;;15.10;;
57331;SDS011;43164;50.908;18.092;2022-10-16T07:48:42;22.70;;;14.50;;
57331;SDS011;43164;50.908;18.092;2022-10-16T07:51:20;26.40;;;14.90;;
57331;SDS011;43164;50.908;18.092;2022-10-16T07:54:05;24.00;;;14.60;;
57331;SDS011;43164;50.908;18.092;2022-10-16T07:56:41;22.50;;;14.20;;
57331;SDS011;43164;50.908;18.092;2022-10-16T07:59:27;23.00;;;14.80;;
57331;SDS011;43164;50.908;18.092;2022-10-16T08:02:03;31.30;;;14.40;;
57331;SDS011;43164;50.908;18.092;2022-10-16T08:04:37;24.70;;;13.70;;
57331;SDS011;43164;50.908;18.092;2022-10-16T08:07:11;24.40;;;13.30;;
57331;SDS011;43164;50.908;18.092;2022-10-16T08:09:44;23.20;;;14.10;;
57331;SDS011;43164;50.908;18.092;2022-10-16T08:12:20;19.50;;;12.80;;
57331;SDS011;43164;50.908;18.092;2022-10-16T08:14:52;19.20;;;12.20;;
57331;SDS011;43164;50.908;18.092;2022-10-16T08:17:24;22.90;;;12.80;;
57331;SDS011;43164;50.908;18.092;2022-10-16T08:19:58;18.60;;;12.90;;
57331;SDS011;43164;50.908;18.092;2022-10-16T08:22:30;18.20;;;12.00;;
57331;SDS011;43164;50.908;18.092;2022-10-16T08:25:00;23.00;;;13.20;;
57331;SDS011;43164;50.908;18.092;2022-10-16T08:27:32;19.00;;;12.20;;
57331;SDS011;43164;50.908;18.092;2022-10-16T08:30:05;20.10;;;12.90;;
57331;SDS011;43164;50.908;18.092;2022-10-16T08:32:34;19.40;;;12.00;;
57331;SDS011;43164;50.908;18.092;2022-10-16T08:35:03;21.40;;;12.60;;
57331;SDS011;43164;50.908;18.092;2022-10-16T08:37:31;19.60;;;12.20;;
57331;SDS011;43164;50.908;18.092;2022-10-16T08:40:02;18.10;;;11.70;;
57331;SDS011;43164;50.908;18.092;2022-10-16T08:42:45;18.80;;;11.60;;
57331;SDS011;43164;50.908;18.092;2022-10-16T08:45:21;18.00;;;11.10;;
57331;SDS011;43164;50.908;18.092;2022-10-16T09:27:14;16.40;;;9.50;;
57331;SDS011;43164;50.908;18.092;2022-10-16T09:50:38;14.90;;;9.40;;
57331;SDS011;43164;50.908;18.092;2022-10-16T10:00:04;15.20;;;8.80;;
57331;SDS011;43164;50.908;18.092;2022-10-16T10:02:58;13.60;;;7.90;;
57331;SDS011;43164;50.908;18.092;2022-10-16T10:05:40;14.00;;;9.00;;
57331;SDS011;43164;50.908;18.092;2022-10-16T10:29:54;18.40;;;9.30;;
57331;SDS011;43164;50.908;18.092;2022-10-16T10:51:41;14.40;;;8.40;;
57331;SDS011;43164;50.908;18.092;2022-10-16T10:57:22;13.60;;;7.60;;
57331;SDS011;43164;50.908;18.092;2022-10-16T11:00:15;15.60;;;7.60;;
57331;SDS011;43164;50.908;18.092;2022-10-16T11:14:06;13.30;;;8.20;;
57331;SDS011;43164;50.908;18.092;2022-10-16T11:32:06;13.70;;;9.00;;
57331;SDS011;43164;50.908;18.092;2022-10-16T11:49:53;13.40;;;8.60;;
57331;SDS011;43164;50.908;18.092;2022-10-16T12:22:01;20.20;;;11.10;;
57331;SDS011;43164;50.908;18.092;2022-10-16T12:35:01;12.70;;;8.10;;
57331;SDS011;43164;50.908;18.092;2022-10-16T12:41:08;14.90;;;9.10;;
57331;SDS011;43164;50.908;18.092;2022-10-16T14:18:28;15.70;;;9.40;;
57331;SDS011;43164;50.908;18.092;2022-10-16T14:21:11;18.50;;;10.50;;
57331;SDS011;43164;50.908;18.092;2022-10-16T14:27:36;17.60;;;9.80;;
57331;SDS011;43164;50.908;18.092;2022-10-16T14:37:50;16.90;;;9.90;;
57331;SDS011;43164;50.908;18.092;2022-10-16T14:45:18;17.50;;;10.80;;
57331;SDS011;43164;50.908;18.092;2022-10-16T15:01:56;19.20;;;11.20;;
57331;SDS011;43164;50.908;18.092;2022-10-16T15:04:51;20.20;;;11.70;;
57331;SDS011;43164;50.908;18.092;2022-10-16T15:07:22;19.20;;;11.60;;
57331;SDS011;43164;50.908;18.092;2022-10-16T15:27:41;23.20;;;13.20;;
57331;SDS011;43164;50.908;18.092;2022-10-16T15:30:14;21.10;;;13.20;;
57331;SDS011;43164;50.908;18.092;2022-10-16T15:32:49;20.30;;;12.40;;
57331;SDS011;43164;50.908;18.092;2022-10-16T15:55:50;19.10;;;11.50;;
57331;SDS011;43164;50.908;18.092;2022-10-16T15:58:27;21.50;;;12.90;;
57331;SDS011;43164;50.908;18.092;2022-10-16T16:00:56;20.60;;;13.40;;
57331;SDS011;43164;50.908;18.092;2022-10-16T16:03:32;21.80;;;13.10;;
57331;SDS011;43164;50.908;18.092;2022-10-16T16:06:07;24.80;;;15.00;;
57331;SDS011;43164;50.908;18.092;2022-10-16T16:11:41;25.60;;;15.00;;
57331;SDS011;43164;50.908;18.092;2022-10-16T16:18:05;21.90;;;12.90;;
57331;SDS011;43164;50.908;18.092;2022-10-16T16:20:44;23.40;;;13.80;;
57331;SDS011;43164;50.908;18.092;2022-10-16T16:29:26;24.00;;;13.70;;
57331;SDS011;43164;50.908;18.092;2022-10-16T16:38:59;24.90;;;14.60;;
57331;SDS011;43164;50.908;18.092;2022-10-16T16:41:55;23.40;;;13.60;;
57331;SDS011;43164;50.908;18.092;2022-10-16T16:59:18;24.50;;;14.40;;
57331;SDS011;43164;50.908;18.092;2022-10-16T17:12:12;26.30;;;15.50;;
57331;SDS011;43164;50.908;18.092;2022-10-16T17:25:30;27.70;;;16.00;;
57331;SDS011;43164;50.908;18.092;2022-10-16T17:31:57;29.40;;;16.70;;
57331;SDS011;43164;50.908;18.092;2022-10-16T18:22:26;28.00;;;16.30;;
57331;SDS011;43164;50.908;18.092;2022-10-16T18:25:03;30.60;;;17.90;;
57331;SDS011;43164;50.908;18.092;2022-10-16T18:37:18;30.90;;;19.30;;
57331;SDS011;43164;50.908;18.092;2022-10-16T19:00:49;24.50;;;15.60;;
57331;SDS011;43164;50.908;18.092;2022-10-16T19:03:37;30.90;;;16.70;;
57331;SDS011;43164;50.908;18.092;2022-10-16T19:06:24;31.80;;;17.70;;
57331;SDS011;43164;50.908;18.092;2022-10-16T19:15:24;32.30;;;17.40;;
57331;SDS011;43164;50.908;18.092;2022-10-16T19:25:01;27.10;;;17.10;;
57331;SDS011;43164;50.908;18.092;2022-10-16T19:27:35;30.00;;;18.20;;
57331;SDS011;43164;50.908;18.092;2022-10-16T19:30:09;33.70;;;19.60;;
57331;SDS011;43164;50.908;18.092;2022-10-16T19:32:43;31.10;;;19.10;;
57331;SDS011;43164;50.908;18.092;2022-10-16T19:35:15;34.40;;;19.00;;
57331;SDS011;43164;50.908;18.092;2022-10-16T19:37:43;36.10;;;20.30;;
57331;SDS011;43164;50.908;18.092;2022-10-16T19:40:18;33.90;;;20.00;;
57331;SDS011;43164;50.908;18.092;2022-10-16T19:42:52;34.10;;;19.70;;
57331;SDS011;43164;50.908;18.092;2022-10-16T19:45:21;34.00;;;19.10;;
57331;SDS011;43164;50.908;18.092;2022-10-16T19:47:56;29.80;;;18.30;;
57331;SDS011;43164;50.908;18.092;2022-10-16T19:57:06;30.20;;;18.30;;
57331;SDS011;43164;50.908;18.092;2022-10-16T20:03:19;28.90;;;18.10;;
57331;SDS011;43164;50.908;18.092;2022-10-16T20:16:55;29.20;;;17.70;;
57331;SDS011;43164;50.908;18.092;2022-10-16T20:22:24;33.80;;;18.60;;
57331;SDS011;43164;50.908;18.092;2022-10-16T20:24:58;29.80;;;18.10;;
57331;SDS011;43164;50.908;18.092;2022-10-16T20:27:36;37.00;;;19.80;;
57331;SDS011;43164;50.908;18.092;2022-10-16T20:33:40;33.40;;;18.90;;
57331;SDS011;43164;50.908;18.092;2022-10-16T20:36:14;32.00;;;18.20;;
57331;SDS011;43164;50.908;18.092;2022-10-16T20:38:58;34.80;;;19.70;;
57331;SDS011;43164;50.908;18.092;2022-10-16T20:56:00;37.50;;;22.10;;
57331;SDS011;43164;50.908;18.092;2022-10-16T21:02:05;34.60;;;20.00;;
57331;SDS011;43164;50.908;18.092;2022-10-16T21:04:46;38.80;;;21.70;;
57331;SDS011;43164;50.908;18.092;2022-10-16T21:09:43;36.80;;;18.00;;
57331;SDS011;43164;50.908;18.092;2022-10-16T21:12:12;32.30;;;18.90;;
57331;SDS011;43164;50.908;18.092;2022-10-16T21:14:40;33.40;;;19.50;;
57331;SDS011;43164;50.908;18.092;2022-10-16T21:17:08;36.60;;;21.30;;
57331;SDS011;43164;50.908;18.092;2022-10-16T21:19:35;35.10;;;20.90;;
57331;SDS011;43164;50.908;18.092;2022-10-16T21:22:03;35.40;;;19.30;;
57331;SDS011;43164;50.908;18.092;2022-10-16T21:24:31;33.10;;;19.50;;
57331;SDS011;43164;50.908;18.092;2022-10-16T21:26:59;33.50;;;20.30;;
57331;SDS011;43164;50.908;18.092;2022-10-16T21:29:27;34.10;;;20.00;;
57331;SDS011;43164;50.908;18.092;2022-10-16T21:31:55;36.90;;;22.00;;
57331;SDS011;43164;50.908;18.092;2022-10-16T21:34:22;39.00;;;23.30;;
57331;SDS011;43164;50.908;18.092;2022-10-16T21:36:50;35.10;;;21.20;;
57331;SDS011;43164;50.908;18.092;2022-10-16T21:39:18;36.60;;;21.40;;
57331;SDS011;43164;50.908;18.092;2022-10-16T21:41:48;35.50;;;20.40;;
57331;SDS011;43164;50.908;18.092;2022-10-16T21:44:16;38.80;;;22.20;;
57331;SDS011;43164;50.908;18.092;2022-10-16T21:46:46;39.90;;;22.70;;
57331;SDS011;43164;50.908;18.092;2022-10-16T21:49:15;35.90;;;21.90;;
57331;SDS011;43164;50.908;18.092;2022-10-16T21:51:45;40.80;;;21.30;;
57331;SDS011;43164;50.908;18.092;2022-10-16T21:54:14;38.50;;;22.50;;
57331;SDS011;43164;50.908;18.092;2022-10-16T21:56:43;37.80;;;22.10;;
57331;SDS011;43164;50.908;18.092;2022-10-16T21:59:11;33.80;;;21.00;;
57331;SDS011;43164;50.908;18.092;2022-10-16T22:01:39;34.80;;;20.00;;
57331;SDS011;43164;50.908;18.092;2022-10-16T22:04:09;41.70;;;23.20;;
57331;SDS011;43164;50.908;18.092;2022-10-16T22:06:38;40.80;;;24.80;;
57331;SDS011;43164;50.908;18.092;2022-10-16T22:09:06;42.70;;;25.60;;
57331;SDS011;43164;50.908;18.092;2022-10-16T22:11:35;43.50;;;23.40;;
57331;SDS011;43164;50.908;18.092;2022-10-16T22:14:13;45.20;;;24.90;;
57331;SDS011;43164;50.908;18.092;2022-10-16T22:16:42;42.70;;;24.00;;
57331;SDS011;43164;50.908;18.092;2022-10-16T22:19:11;46.50;;;25.60;;
57331;SDS011;43164;50.908;18.092;2022-10-16T22:21:39;44.50;;;26.00;;
57331;SDS011;43164;50.908;18.092;2022-10-16T22:24:08;45.90;;;25.10;;
57331;SDS011;43164;50.908;18.092;2022-10-16T22:26:36;41.50;;;23.00;;
57331;SDS011;43164;50.908;18.092;2022-10-16T22:29:04;39.90;;;23.10;;
57331;SDS011;43164;50.908;18.092;2022-10-16T22:31:33;44.50;;;23.90;;
57331;SDS011;43164;50.908;18.092;2022-10-16T22:34:01;40.60;;;22.80;;
57331;SDS011;43164;50.908;18.092;2022-10-16T22:36:30;38.20;;;23.70;;
57331;SDS011;43164;50.908;18.092;2022-10-16T22:38:59;37.70;;;22.70;;
57331;SDS011;43164;50.908;18.092;2022-10-16T22:41:27;42.40;;;23.10;;
57331;SDS011;43164;50.908;18.092;2022-10-16T22:43:55;43.80;;;24.70;;
57331;SDS011;43164;50.908;18.092;2022-10-16T22:46:24;39.40;;;22.50;;
57331;SDS011;43164;50.908;18.092;2022-10-16T22:48:54;44.70;;;25.50;;
57331;SDS011;43164;50.908;18.092;2022-10-16T22:51:22;45.30;;;24.90;;
57331;SDS011;43164;50.908;18.092;2022-10-16T22:53:51;41.90;;;24.40;;
57331;SDS011;43164;50.908;18.092;2022-10-16T22:56:19;46.20;;;26.00;;
57331;SDS011;43164;50.908;18.092;2022-10-16T22:58:48;46.40;;;26.30;;
57331;SDS011;43164;50.908;18.092;2022-10-16T23:01:22;42.60;;;24.50;;
57331;SDS011;43164;50.908;18.092;2022-10-16T23:03:53;44.30;;;24.80;;
57331;SDS011;43164;50.908;18.092;2022-10-16T23:06:22;43.20;;;24.40;;
57331;SDS011;43164;50.908;18.092;2022-10-16T23:08:53;48.90;;;26.30;;
57331;SDS011;43164;50.908;18.092;2022-10-16T23:11:23;45.30;;;24.90;;
57331;SDS011;43164;50.908;18.092;2022-10-16T23:13:51;44.00;;;24.00;;
57331;SDS011;43164;50.908;18.092;2022-10-16T23:16:20;40.50;;;24.20;;
57331;SDS011;43164;50.908;18.092;2022-10-16T23:18:48;37.10;;;22.70;;
57331;SDS011;43164;50.908;18.092;2022-10-16T23:21:19;35.00;;;22.60;;
57331;SDS011;43164;50.908;18.092;2022-10-16T23:23:49;37.80;;;21.90;;
57331;SDS011;43164;50.908;18.092;2022-10-16T23:26:22;35.90;;;21.60;;
57331;SDS011;43164;50.908;18.092;2022-10-16T23:28:51;38.80;;;22.10;;
57331;SDS011;43164;50.908;18.092;2022-10-16T23:31:19;39.80;;;22.80;;
57331;SDS011;43164;50.908;18.092;2022-10-16T23:33:47;41.00;;;23.70;;
57331;SDS011;43164;50.908;18.092;2022-10-16T23:36:15;41.60;;;23.60;;
57331;SDS011;43164;50.908;18.092;2022-10-16T23:38:45;42.80;;;22.10;;
57331;SDS011;43164;50.908;18.092;2022-10-16T23:41:13;37.80;;;21.50;;
57331;SDS011;43164;50.908;18.092;2022-10-16T23:43:41;39.10;;;22.00;;
57331;SDS011;43164;50.908;18.092;2022-10-16T23:46:09;38.00;;;23.00;;
57331;SDS011;43164;50.908;18.092;2022-10-16T23:48:38;42.40;;;21.30;;
57331;SDS011;43164;50.908;18.092;2022-10-16T23:51:06;38.20;;;22.50;;
57331;SDS011;43164;50.908;18.092;2022-10-16T23:53:34;33.50;;;19.90;;
57331;SDS011;43164;50.908;18.092;2022-10-16T23:56:03;36.60;;;21.60;;
57331;SDS011;43164;50.908;18.092;2022-10-16T23:58:31;36.50;;;21.40;;
